Time;durP1;ratioP1;P1;durP2;ratioP2;P2;SDS_P1;SDS_P2;PMS_P1;PMS_P2;Temp;Humidity;BMP_temperature;BMP_pressure;BME280_temperature;BME280_humidity;BME280_pressure;Samples;Min_cycle;Max_cycle;Signal;HPM_P1;HPM_P2
2023/11/10 00:02:22;;;;;;;1.67;0.70;;;13.80;89.90;;;;;;5058631;28;20024;-82
2023/11/10 00:04:49;;;;;;;2.08;0.75;;;13.80;89.90;;;;;;5076527;28;20028;-82
2023/11/10 00:07:17;;;;;;;1.88;0.70;;;13.90;89.80;;;;;;5058497;28;20367;-81
2023/11/10 00:09:45;;;;;;;1.42;0.60;;;13.90;89.70;;;;;;5057610;28;20021;-80
2023/11/10 00:12:14;;;;;;;1.00;0.60;;;13.90;89.60;;;;;;5076147;28;20016;-82
2023/11/10 00:14:41;;;;;;;1.17;0.63;;;13.90;89.50;;;;;;5058293;28;20031;-79
2023/11/10 00:17:09;;;;;;;1.02;0.50;;;13.90;89.30;;;;;;5058171;28;20367;-80
2023/11/10 00:19:36;;;;;;;1.10;0.60;;;14.00;89.30;;;;;;5057565;28;20089;-79
2023/11/10 00:22:03;;;;;;;1.30;0.60;;;13.90;89.00;;;;;;5057367;28;20051;-81
2023/11/10 00:24:29;;;;;;;2.35;0.60;;;14.00;89.20;;;;;;5057395;28;20048;-79
2023/11/10 00:26:54;;;;;;;1.20;0.52;;;14.00;89.30;;;;;;5056906;28;20056;-79
2023/11/10 00:29:20;;;;;;;0.85;0.60;;;13.90;89.30;;;;;;5057262;28;20159;-80
2023/11/10 00:31:45;;;;;;;1.35;0.52;;;13.90;89.40;;;;;;5057218;28;20017;-79
2023/11/10 00:34:11;;;;;;;0.40;0.40;;;13.90;89.50;;;;;;5057083;28;20052;-79
2023/11/10 00:36:36;;;;;;;1.17;0.60;;;13.90;89.60;;;;;;5057195;28;20067;-79
2023/11/10 00:39:02;;;;;;;1.08;0.60;;;13.90;89.60;;;;;;5057357;28;20016;-80
2023/11/10 00:41:27;;;;;;;0.93;0.55;;;13.80;89.60;;;;;;5057690;28;20021;-80
2023/11/10 00:43:53;;;;;;;1.25;0.60;;;13.80;89.60;;;;;;5057195;28;20029;-79
2023/11/10 00:46:18;;;;;;;1.88;0.60;;;13.90;89.70;;;;;;5057161;28;20025;-80
2023/11/10 00:48:44;;;;;;;0.95;0.60;;;13.90;89.80;;;;;;5056523;28;20541;-79
2023/11/10 00:51:09;;;;;;;1.45;0.60;;;13.90;89.80;;;;;;5056361;28;20025;-79
2023/11/10 00:53:35;;;;;;;0.77;0.50;;;13.80;89.80;;;;;;5056788;28;20490;-79
2023/11/10 00:56:01;;;;;;;1.75;0.77;;;13.80;89.70;;;;;;5056787;28;20483;-80
2023/11/10 00:58:27;;;;;;;1.30;0.57;;;13.80;89.80;;;;;;5055729;28;20489;-79
2023/11/10 01:00:53;;;;;;;1.77;0.70;;;13.80;89.80;;;;;;5056650;28;20448;-80
2023/11/10 01:03:19;;;;;;;1.55;0.70;;;13.80;89.80;;;;;;5056478;28;20021;-79
2023/11/10 01:05:45;;;;;;;0.82;0.65;;;13.80;89.80;;;;;;5056897;28;20028;-79
2023/11/10 01:08:11;;;;;;;1.20;0.55;;;13.80;89.80;;;;;;5056524;28;20074;-78
2023/11/10 01:10:36;;;;;;;0.80;0.50;;;13.80;89.90;;;;;;5074417;28;20543;-79
2023/11/10 01:13:03;;;;;;;0.60;0.57;;;13.90;89.90;;;;;;5056395;28;20028;-80
2023/11/10 01:15:29;;;;;;;1.42;0.60;;;13.70;89.80;;;;;;5057021;28;20436;-79
2023/11/10 01:17:54;;;;;;;1.08;0.63;;;13.80;89.80;;;;;;5056358;28;20067;-81
2023/11/10 01:20:20;;;;;;;0.98;0.68;;;13.80;89.90;;;;;;5056267;28;20396;-79
2023/11/10 01:22:45;;;;;;;0.95;0.50;;;13.80;89.90;;;;;;5074608;28;20111;-79
2023/11/10 01:25:14;;;;;;;0.50;0.50;;;13.80;89.80;;;;;;5056189;28;20021;-79
2023/11/10 01:27:42;;;;;;;1.63;0.60;;;13.80;89.90;;;;;;5074806;28;20054;-79
2023/11/10 01:30:12;;;;;;;1.05;0.60;;;13.80;89.80;;;;;;5056390;28;20405;-80
2023/11/10 01:32:37;;;;;;;0.60;0.50;;;13.80;89.90;;;;;;5074460;28;20028;-79
2023/11/10 01:35:03;;;;;;;0.73;0.47;;;13.80;89.90;;;;;;5074594;28;20024;-79
2023/11/10 01:37:29;;;;;;;0.77;0.50;;;13.90;89.90;;;;;;5074389;28;20017;-80
2023/11/10 01:39:55;;;;;;;1.02;0.50;;;13.90;90.10;;;;;;5055759;28;20036;-79
2023/11/10 01:42:21;;;;;;;0.77;0.40;;;13.80;89.60;;;;;;5056178;28;20478;-80
2023/11/10 01:44:46;;;;;;;0.75;0.60;;;13.90;89.60;;;;;;5056712;28;20025;-79
2023/11/10 01:47:13;;;;;;;1.35;0.68;;;13.90;89.50;;;;;;5074282;28;20051;-80
2023/11/10 01:49:38;;;;;;;2.20;0.70;;;13.90;89.30;;;;;;5074156;28;20020;-79
2023/11/10 01:52:05;;;;;;;0.60;0.50;;;13.90;89.30;;;;;;5074095;28;20563;-79
2023/11/10 01:54:35;;;;;;;1.90;0.63;;;13.90;89.20;;;;;;5056338;28;20036;-79
2023/11/10 01:57:03;;;;;;;1.45;0.57;;;13.90;89.30;;;;;;5055862;28;20020;-80
2023/11/10 01:59:30;;;;;;;0.82;0.50;;;13.90;89.40;;;;;;5073371;28;20077;-80
2023/11/10 02:01:56;;;;;;;1.42;0.60;;;13.90;89.40;;;;;;5055905;28;20027;-79
2023/11/10 02:04:21;;;;;;;1.33;0.50;;;13.90;89.50;;;;;;5055909;28;20024;-79
2023/11/10 02:06:47;;;;;;;0.65;0.50;;;13.90;90.00;;;;;;5055679;28;20036;-80
2023/11/10 02:09:13;;;;;;;0.65;0.50;;;13.90;89.60;;;;;;5055670;28;20021;-80
2023/11/10 02:11:39;;;;;;;1.90;0.60;;;13.80;89.60;;;;;;5056077;28;20082;-79
2023/11/10 02:14:07;;;;;;;1.90;0.60;;;13.90;89.70;;;;;;5056062;28;20032;-79
2023/11/10 02:16:32;;;;;;;1.42;0.55;;;13.90;89.70;;;;;;5055837;28;20055;-80
2023/11/10 02:18:58;;;;;;;0.60;0.47;;;13.80;89.70;;;;;;5055456;28;20052;-79
2023/11/10 02:21:24;;;;;;;1.00;0.50;;;13.80;89.70;;;;;;5073959;28;20560;-78
2023/11/10 02:23:57;;;;;;;0.80;0.60;;;13.80;89.80;;;;;;5076791;28;20029;-80
2023/11/10 02:26:26;;;;;;;1.05;0.65;;;13.80;89.80;;;;;;5072262;28;20020;-80
2023/11/10 02:28:52;;;;;;;2.25;0.70;;;13.80;89.80;;;;;;5059550;28;20024;-79
2023/11/10 02:31:17;;;;;;;1.63;0.50;;;13.80;89.80;;;;;;5078663;28;20028;-79
2023/11/10 02:33:43;;;;;;;1.65;0.55;;;13.80;89.80;;;;;;5078711;28;20533;-79
2023/11/10 02:36:09;;;;;;;1.48;0.65;;;13.80;89.80;;;;;;5060132;28;20028;-79
2023/11/10 02:38:36;;;;;;;0.82;0.43;;;13.80;89.80;;;;;;5078137;28;20012;-79
2023/11/10 02:41:02;;;;;;;0.88;0.50;;;13.80;89.90;;;;;;5059685;28;20107;-79
2023/11/10 02:43:27;;;;;;;0.70;0.40;;;13.80;89.80;;;;;;5058854;28;20504;-80
2023/11/10 02:45:53;;;;;;;0.85;0.57;;;13.80;89.90;;;;;;5059378;28;20032;-80
2023/11/10 02:48:18;;;;;;;0.88;0.50;;;13.80;89.90;;;;;;5059093;28;20482;-79
2023/11/10 02:50:47;;;;;;;0.55;0.38;;;13.80;89.90;;;;;;5076514;28;20113;-80
2023/11/10 02:53:13;;;;;;;0.50;0.50;;;13.80;89.90;;;;;;5058696;28;20170;-80
2023/11/10 02:55:39;;;;;;;1.17;0.60;;;13.80;89.90;;;;;;5076836;28;20056;-80
2023/11/10 02:58:04;;;;;;;0.80;0.47;;;13.80;89.80;;;;;;5059043;28;20390;-80
2023/11/10 03:00:30;;;;;;;0.73;0.40;;;13.80;89.80;;;;;;5058964;28;20028;-80
2023/11/10 03:02:56;;;;;;;1.52;0.60;;;13.80;90.00;;;;;;5077518;28;20090;-80
2023/11/10 03:05:21;;;;;;;0.75;0.50;;;13.80;89.90;;;;;;5058656;28;20024;-81
2023/11/10 03:07:47;;;;;;;0.40;0.40;;;13.80;89.80;;;;;;5071185;28;20024;-80
2023/11/10 03:10:13;;;;;;;0.68;0.30;;;13.80;89.70;;;;;;5076210;28;20024;-80
2023/11/10 03:12:38;;;;;;;0.55;0.40;;;13.90;89.60;;;;;;5076936;28;20031;-80
2023/11/10 03:15:04;;;;;;;0.50;0.38;;;13.90;89.50;;;;;;5059158;28;20028;-80
2023/11/10 03:17:30;;;;;;;1.45;0.45;;;13.90;89.30;;;;;;5058310;28;20067;-80
2023/11/10 03:19:58;;;;;;;0.50;0.40;;;13.90;89.30;;;;;;5076734;28;20025;-80
2023/11/10 03:22:24;;;;;;;1.05;0.50;;;13.90;89.10;;;;;;5058736;28;20028;-80
2023/11/10 03:24:50;;;;;;;0.60;0.45;;;13.90;89.20;;;;;;5058694;28;20029;-80
2023/11/10 03:27:16;;;;;;;0.75;0.43;;;13.90;89.30;;;;;;5058195;28;20024;-80
2023/11/10 03:29:42;;;;;;;1.27;0.50;;;13.90;89.30;;;;;;5076334;28;20029;-80
2023/11/10 03:32:08;;;;;;;0.40;0.40;;;13.90;89.40;;;;;;5076411;28;20020;-80
2023/11/10 03:34:39;;;;;;;1.13;0.50;;;13.80;89.40;;;;;;5057868;28;20074;-80
2023/11/10 03:37:04;;;;;;;0.90;0.50;;;13.80;89.40;;;;;;5058787;28;20017;-80
2023/11/10 03:39:30;;;;;;;0.98;0.45;;;13.80;89.50;;;;;;5057977;28;20131;-80
2023/11/10 03:42:00;;;;;;;0.88;0.50;;;13.80;89.60;;;;;;5058126;28;20123;-80
2023/11/10 03:44:26;;;;;;;1.60;0.50;;;13.80;89.60;;;;;;5076395;28;20410;-79
2023/11/10 03:46:51;;;;;;;0.75;0.45;;;13.80;89.60;;;;;;5058515;28;20507;-80
2023/11/10 03:49:17;;;;;;;0.70;0.40;;;13.80;89.60;;;;;;5076136;28;20091;-80
2023/11/10 03:51:44;;;;;;;0.52;0.43;;;13.80;89.60;;;;;;5057599;28;20069;-80
2023/11/10 03:54:09;;;;;;;0.98;0.45;;;13.80;89.70;;;;;;5075733;28;20107;-80
2023/11/10 03:56:39;;;;;;;0.88;0.45;;;13.80;89.70;;;;;;5057647;28;20044;-77
2023/11/10 03:59:08;;;;;;;1.08;0.32;;;13.80;89.70;;;;;;5057985;28;20017;-80
2023/11/10 04:01:34;;;;;;;0.60;0.50;;;13.80;89.70;;;;;;5057765;28;20020;-80
2023/11/10 04:04:00;;;;;;;1.20;0.55;;;13.80;89.70;;;;;;5057992;28;20052;-80
2023/11/10 04:06:26;;;;;;;1.15;0.50;;;13.80;89.80;;;;;;5057811;28;20028;-79
2023/11/10 04:08:51;;;;;;;1.10;0.50;;;13.80;89.80;;;;;;5075400;28;20028;-80
2023/11/10 04:11:17;;;;;;;0.70;0.50;;;13.80;89.80;;;;;;5057973;28;20024;-80
2023/11/10 04:13:44;;;;;;;1.20;0.32;;;13.80;89.80;;;;;;5057831;28;20094;-79
2023/11/10 04:16:20;;;;;;;1.25;0.50;;;13.80;89.80;;;;;;5057400;28;20516;-80
2023/11/10 04:18:53;;;;;;;0.50;0.30;;;13.80;89.80;;;;;;5078784;22;20507;-77
2023/11/10 04:21:24;;;;;;;0.73;0.50;;;13.80;89.80;;;;;;5008501;28;20116;-79
2023/11/10 04:23:50;;;;;;;0.98;0.50;;;13.70;89.80;;;;;;5036217;28;20096;-77
2023/11/10 04:26:16;;;;;;;1.42;0.52;;;13.70;89.80;;;;;;5011800;28;20034;-77
2023/11/10 04:28:47;;;;;;;1.58;0.50;;;13.70;89.70;;;;;;5027891;28;20025;-79
2023/11/10 04:31:14;;;;;;;0.47;0.30;;;13.70;89.90;;;;;;5014595;28;20022;-76
2023/11/10 04:33:40;;;;;;;1.55;0.70;;;13.80;89.90;;;;;;5032596;28;20034;-77
2023/11/10 04:36:06;;;;;;;0.80;0.50;;;13.80;89.80;;;;;;5015225;28;20043;-79
2023/11/10 04:38:35;;;;;;;1.40;0.60;;;13.80;90.00;;;;;;5032539;28;20017;-77
2023/11/10 04:41:04;;;;;;;0.57;0.38;;;13.80;89.50;;;;;;5032635;28;20032;-77
2023/11/10 04:43:29;;;;;;;0.93;0.28;;;13.80;89.40;;;;;;5014628;28;20033;-77
2023/11/10 04:45:55;;;;;;;0.52;0.40;;;13.90;89.30;;;;;;5031994;28;20032;-77
2023/11/10 04:48:21;;;;;;;0.90;0.43;;;13.80;89.00;;;;;;5032528;28;20029;-76
2023/11/10 04:50:47;;;;;;;0.88;0.40;;;13.90;89.00;;;;;;5014950;28;20115;-77
2023/11/10 04:53:13;;;;;;;0.80;0.40;;;13.90;89.00;;;;;;5032476;28;20060;-77
2023/11/10 04:55:42;;;;;;;0.95;0.35;;;13.90;89.10;;;;;;5032511;28;20499;-77
2023/11/10 04:58:08;;;;;;;0.98;0.40;;;13.90;89.20;;;;;;5014676;28;20483;-76
2023/11/10 05:00:33;;;;;;;1.70;0.40;;;13.90;89.20;;;;;;5032460;28;20022;-77
2023/11/10 05:03:02;;;;;;;0.63;0.43;;;13.80;89.30;;;;;;5032749;28;20029;-77
2023/11/10 05:05:27;;;;;;;1.20;0.30;;;13.80;89.30;;;;;;5039324;28;20022;-77
2023/11/10 05:07:53;;;;;;;1.85;0.50;;;13.80;89.30;;;;;;5013319;28;20036;-77
2023/11/10 05:10:19;;;;;;;0.47;0.30;;;13.80;89.40;;;;;;5014580;28;20017;-77
2023/11/10 05:12:44;;;;;;;0.55;0.43;;;13.80;89.50;;;;;;5032595;28;20105;-77
2023/11/10 05:15:11;;;;;;;0.43;0.40;;;13.80;89.60;;;;;;5032540;28;20026;-77
2023/11/10 05:17:39;;;;;;;1.48;0.50;;;13.80;89.60;;;;;;5013628;28;20026;-77
2023/11/10 05:20:11;;;;;;;1.40;0.52;;;13.70;89.70;;;;;;5031913;28;20021;-77
2023/11/10 05:22:39;;;;;;;1.08;0.40;;;13.80;89.60;;;;;;5014749;28;20376;-77
2023/11/10 05:25:06;;;;;;;0.70;0.30;;;13.80;89.60;;;;;;5014872;28;20037;-77
2023/11/10 05:27:31;;;;;;;0.77;0.50;;;13.80;89.60;;;;;;5014624;28;20029;-77
2023/11/10 05:29:57;;;;;;;1.23;0.60;;;13.70;89.50;;;;;;5014671;28;20033;-77
2023/11/10 05:32:23;;;;;;;0.60;0.30;;;13.80;89.60;;;;;;5031663;28;20112;-77
2023/11/10 05:34:51;;;;;;;1.48;0.40;;;13.80;89.60;;;;;;5031795;28;20073;-77
2023/11/10 05:37:21;;;;;;;1.38;0.50;;;13.70;89.60;;;;;;5031158;28;20032;-78
2023/11/10 05:39:47;;;;;;;1.65;0.50;;;13.80;89.70;;;;;;5030687;28;20013;-78
2023/11/10 05:42:13;;;;;;;0.65;0.30;;;13.80;89.70;;;;;;5046918;28;20025;-76
2023/11/10 05:44:39;;;;;;;1.00;0.35;;;13.80;89.70;;;;;;5046903;28;20075;-77
2023/11/10 05:47:05;;;;;;;1.00;0.50;;;13.70;89.60;;;;;;5029078;28;20040;-76
2023/11/10 05:49:30;;;;;;;0.88;0.40;;;13.70;89.60;;;;;;5032478;28;20404;-76
2023/11/10 05:51:56;;;;;;;1.60;0.60;;;13.80;89.70;;;;;;5007988;28;20163;-76
2023/11/10 05:54:21;;;;;;;1.30;0.43;;;13.70;89.60;;;;;;5008136;28;20032;-77
2023/11/10 05:56:47;;;;;;;1.50;0.50;;;13.70;89.70;;;;;;5026983;28;20026;-77
2023/11/10 05:59:12;;;;;;;0.73;0.40;;;13.70;89.70;;;;;;5012137;28;20021;-76
2023/11/10 06:01:38;;;;;;;0.60;0.40;;;13.70;89.70;;;;;;5012627;28;20093;-77
2023/11/10 06:04:04;;;;;;;0.95;0.40;;;13.70;89.60;;;;;;5013620;28;20030;-77
2023/11/10 06:06:30;;;;;;;1.02;0.50;;;13.70;89.70;;;;;;5029748;28;20563;-77
2023/11/10 06:08:55;;;;;;;0.82;0.40;;;13.80;89.80;;;;;;5011575;28;20048;-77
2023/11/10 06:11:22;;;;;;;1.33;0.60;;;13.80;89.70;;;;;;5012076;28;20030;-77
2023/11/10 06:13:48;;;;;;;0.52;0.32;;;13.80;89.60;;;;;;5011109;28;20025;-77
2023/11/10 06:16:17;;;;;;;1.00;0.40;;;13.80;89.40;;;;;;5032103;28;20435;-76
2023/11/10 06:18:46;;;;;;;1.42;0.38;;;13.80;89.30;;;;;;5017696;28;20086;-76
2023/11/10 06:21:12;;;;;;;1.63;0.40;;;13.80;89.30;;;;;;5048960;28;20036;-77
2023/11/10 06:23:39;;;;;;;0.45;0.35;;;13.80;89.10;;;;;;5050103;28;20028;-77
2023/11/10 06:26:05;;;;;;;1.27;0.45;;;13.80;89.10;;;;;;5032782;28;20052;-77
2023/11/10 06:28:31;;;;;;;1.17;0.57;;;13.90;89.00;;;;;;5031724;28;20033;-77
2023/11/10 06:30:57;;;;;;;0.32;0.32;;;13.90;89.00;;;;;;5031752;28;20040;-78
2023/11/10 06:33:24;;;;;;;0.80;0.40;;;13.90;89.10;;;;;;5048328;28;20120;-76
2023/11/10 06:35:49;;;;;;;1.00;0.50;;;13.90;89.20;;;;;;5049684;28;20419;-78
2023/11/10 06:38:15;;;;;;;0.98;0.35;;;13.80;89.20;;;;;;5036582;28;20029;-78
2023/11/10 06:40:40;;;;;;;0.63;0.30;;;13.80;89.20;;;;;;5012771;28;20397;-77
2023/11/10 06:43:07;;;;;;;0.60;0.35;;;13.80;89.30;;;;;;5014656;28;20041;-78
2023/11/10 06:45:33;;;;;;;0.90;0.30;;;13.80;89.40;;;;;;5031053;28;20021;-77
2023/11/10 06:48:03;;;;;;;0.77;0.40;;;13.80;89.50;;;;;;5030952;28;20082;-78
2023/11/10 06:50:31;;;;;;;1.70;0.50;;;13.80;89.50;;;;;;5048830;28;20120;-77
2023/11/10 06:53:00;;;;;;;0.82;0.40;;;13.80;89.60;;;;;;5049099;28;20021;-77
2023/11/10 06:55:25;;;;;;;1.40;0.57;;;13.80;89.60;;;;;;5050337;28;20024;-77
2023/11/10 06:57:51;;;;;;;1.08;0.40;;;13.80;89.70;;;;;;5032795;28;20035;-78
2023/11/10 07:00:17;;;;;;;0.82;0.40;;;13.70;89.60;;;;;;5031529;28;20056;-76
2023/11/10 07:02:43;;;;;;;0.73;0.50;;;13.70;89.60;;;;;;5032139;28;20031;-77
2023/11/10 07:05:09;;;;;;;0.45;0.40;;;13.70;89.70;;;;;;5049837;28;20485;-77
2023/11/10 07:07:35;;;;;;;0.63;0.40;;;13.70;89.70;;;;;;5049988;28;20025;-76
2023/11/10 07:10:01;;;;;;;2.03;0.50;;;13.70;89.70;;;;;;5048384;28;20445;-77
2023/11/10 07:12:27;;;;;;;1.27;0.50;;;13.70;89.70;;;;;;5032535;28;20032;-78
2023/11/10 07:14:53;;;;;;;2.13;0.30;;;13.70;89.70;;;;;;5040892;28;20056;-77
2023/11/10 07:17:19;;;;;;;1.02;0.30;;;13.70;89.70;;;;;;5012252;28;20239;-77
2023/11/10 07:19:47;;;;;;;1.50;0.50;;;13.70;89.70;;;;;;5012422;28;20033;-77
2023/11/10 07:22:13;;;;;;;1.55;0.70;;;13.70;89.60;;;;;;5011999;28;20095;-77
2023/11/10 07:24:38;;;;;;;1.58;0.60;;;13.70;89.60;;;;;;5015117;28;20041;-77
2023/11/10 07:27:06;;;;;;;1.42;0.77;;;13.70;89.60;;;;;;5024527;28;20594;-77
2023/11/10 07:29:38;;;;;;;1.30;0.52;;;13.70;89.60;;;;;;5028946;28;20045;-77
2023/11/10 07:32:03;;;;;;;1.65;0.50;;;13.70;89.50;;;;;;5011592;28;20029;-77
2023/11/10 07:34:29;;;;;;;0.50;0.35;;;13.70;89.60;;;;;;5029073;28;20034;-76
2023/11/10 07:36:57;;;;;;;0.98;0.47;;;13.70;89.60;;;;;;5011382;28;20072;-77
2023/11/10 07:39:28;;;;;;;1.40;0.50;;;13.70;89.70;;;;;;5011063;28;20049;-77
2023/11/10 07:41:55;;;;;;;1.17;0.40;;;13.70;89.80;;;;;;5012189;28;20026;-78
2023/11/10 07:44:20;;;;;;;0.73;0.38;;;13.80;89.80;;;;;;5011595;28;20072;-78
2023/11/10 07:46:46;;;;;;;0.70;0.50;;;13.80;90.10;;;;;;5012888;28;20061;-78
2023/11/10 07:49:11;;;;;;;0.90;0.55;;;13.80;89.60;;;;;;5029871;28;20030;-77
2023/11/10 07:51:37;;;;;;;0.90;0.45;;;13.80;89.40;;;;;;5012287;28;20502;-77
2023/11/10 07:54:02;;;;;;;0.95;0.40;;;13.80;89.30;;;;;;5029490;28;20921;-77
2023/11/10 07:56:28;;;;;;;0.70;0.40;;;13.80;89.20;;;;;;5014661;28;20052;-83
2023/11/10 07:58:54;;;;;;;1.20;0.50;;;13.80;89.10;;;;;;5036023;28;20021;-78
2023/11/10 08:01:20;;;;;;;2.30;0.63;;;13.80;89.00;;;;;;5012412;28;20368;-77
2023/11/10 08:03:45;;;;;;;1.00;0.35;;;13.90;89.10;;;;;;5030243;28;20022;-77
2023/11/10 08:06:11;;;;;;;1.58;0.55;;;13.80;89.10;;;;;;5028747;28;20427;-77
2023/11/10 08:08:40;;;;;;;0.85;0.40;;;13.80;89.10;;;;;;5011024;28;20025;-78
2023/11/10 08:11:06;;;;;;;1.05;0.55;;;13.80;89.10;;;;;;5012549;28;20026;-78
2023/11/10 08:13:34;;;;;;;0.70;0.47;;;13.80;89.10;;;;;;5012024;28;20026;-78
2023/11/10 08:16:00;;;;;;;1.33;0.60;;;13.80;89.20;;;;;;5016539;28;20029;-78
2023/11/10 08:18:27;;;;;;;1.20;0.47;;;13.80;89.30;;;;;;5029302;28;20083;-77
2023/11/10 08:20:52;;;;;;;1.48;0.55;;;13.80;89.30;;;;;;5010454;28;20025;-77
2023/11/10 08:23:18;;;;;;;0.75;0.45;;;13.80;89.40;;;;;;5029239;28;20543;-78
2023/11/10 08:25:45;;;;;;;1.35;0.55;;;13.70;89.40;;;;;;5013037;28;20041;-78
2023/11/10 08:28:11;;;;;;;0.80;0.40;;;13.80;89.50;;;;;;5011701;28;20022;-77
2023/11/10 08:30:37;;;;;;;0.82;0.50;;;13.70;89.50;;;;;;5012686;28;20021;-78
2023/11/10 08:33:02;;;;;;;1.38;0.65;;;13.80;89.50;;;;;;5030221;28;20435;-78
2023/11/10 08:35:28;;;;;;;0.65;0.40;;;13.70;89.50;;;;;;5012553;28;20121;-78
2023/11/10 08:37:53;;;;;;;0.80;0.38;;;13.70;89.50;;;;;;5011703;28;20025;-77
2023/11/10 08:40:19;;;;;;;1.05;0.50;;;13.70;89.60;;;;;;5028791;28;20062;-78
2023/11/10 08:42:45;;;;;;;0.60;0.50;;;13.70;89.60;;;;;;5011159;28;20021;-77
2023/11/10 08:45:11;;;;;;;0.60;0.50;;;13.70;89.60;;;;;;5029221;28;20606;-77
2023/11/10 08:47:40;;;;;;;0.68;0.40;;;13.70;89.60;;;;;;5011491;28;20488;-78
2023/11/10 08:50:09;;;;;;;1.40;0.50;;;13.70;89.70;;;;;;5011068;28;20033;-78
2023/11/10 08:52:37;;;;;;;1.08;0.50;;;13.70;89.60;;;;;;5010289;28;20033;-77
2023/11/10 08:55:02;;;;;;;0.68;0.43;;;13.70;89.70;;;;;;5009456;28;20392;-77
2023/11/10 08:57:29;;;;;;;0.43;0.40;;;13.70;89.70;;;;;;5009200;28;20021;-77
2023/11/10 08:59:55;;;;;;;1.75;0.50;;;13.70;89.70;;;;;;5009005;28;20033;-77
2023/11/10 09:02:20;;;;;;;0.77;0.50;;;13.70;89.60;;;;;;5009040;28;20034;-77
2023/11/10 09:04:48;;;;;;;1.23;0.60;;;13.70;89.60;;;;;;5009120;28;20063;-78
2023/11/10 09:07:14;;;;;;;1.75;0.50;;;13.70;89.50;;;;;;5025859;28;20399;-77
2023/11/10 09:09:40;;;;;;;1.15;0.50;;;13.70;89.60;;;;;;5007470;28;20037;-77
2023/11/10 09:12:06;;;;;;;1.38;0.50;;;13.70;89.60;;;;;;5027214;28;20033;-77
2023/11/10 09:14:31;;;;;;;1.13;0.47;;;13.70;89.70;;;;;;5009104;28;20033;-78
2023/11/10 09:16:57;;;;;;;0.60;0.40;;;13.70;89.80;;;;;;5027264;28;20036;-77
2023/11/10 09:19:22;;;;;;;1.13;0.50;;;13.70;89.70;;;;;;5008986;28;20056;-77
2023/11/10 09:21:48;;;;;;;0.88;0.40;;;13.70;89.50;;;;;;5010037;28;20068;-78
2023/11/10 09:24:13;;;;;;;1.48;0.40;;;13.80;89.50;;;;;;5009124;28;20112;-77
2023/11/10 09:26:40;;;;;;;0.55;0.40;;;13.80;89.40;;;;;;5026051;28;20116;-77
2023/11/10 09:29:05;;;;;;;1.40;0.60;;;14.00;89.10;;;;;;5026213;28;20622;-77
2023/11/10 09:31:31;;;;;;;0.73;0.40;;;13.90;88.70;;;;;;5019728;28;20514;-83
2023/11/10 09:33:57;;;;;;;2.90;0.65;;;14.10;88.40;;;;;;5026052;28;20048;-78
2023/11/10 09:36:24;;;;;;;2.60;0.55;;;14.10;88.30;;;;;;5028111;28;20060;-78
2023/11/10 09:38:51;;;;;;;1.33;0.50;;;14.20;88.10;;;;;;5009699;28;20018;-77
2023/11/10 09:41:21;;;;;;;0.73;0.60;;;14.20;87.80;;;;;;5028292;28;20053;-78
2023/11/10 09:43:48;;;;;;;0.80;0.50;;;14.20;87.50;;;;;;5009791;28;20025;-77
2023/11/10 09:46:16;;;;;;;1.27;0.55;;;14.20;87.60;;;;;;5027298;28;20091;-78
2023/11/10 09:48:42;;;;;;;1.60;0.50;;;14.20;87.80;;;;;;5009200;28;20049;-81
2023/11/10 09:51:10;;;;;;;1.35;0.50;;;14.20;88.10;;;;;;5036255;28;20029;-83
2023/11/10 09:53:38;;;;;;;1.17;0.40;;;14.10;88.20;;;;;;5015971;28;20531;-83
2023/11/10 09:56:04;;;;;;;1.35;0.40;;;14.20;88.30;;;;;;5016722;28;20037;-82
2023/11/10 09:58:31;;;;;;;1.85;0.50;;;14.10;88.30;;;;;;5015871;28;20029;-83
2023/11/10 10:00:57;;;;;;;1.17;0.50;;;14.10;88.30;;;;;;5016048;28;20025;-83
2023/11/10 10:03:23;;;;;;;0.93;0.50;;;14.10;88.30;;;;;;5034712;28;20026;-83
2023/11/10 10:05:49;;;;;;;1.17;0.50;;;14.10;88.40;;;;;;5015266;28;20043;-84
2023/11/10 10:08:21;;;;;;;1.48;0.60;;;14.10;88.40;;;;;;5015134;28;20045;-82
2023/11/10 10:10:50;;;;;;;1.60;0.55;;;14.10;88.40;;;;;;5015638;28;20088;-82
2023/11/10 10:13:16;;;;;;;1.50;0.50;;;14.10;88.50;;;;;;5015867;28;20116;-83
2023/11/10 10:15:41;;;;;;;1.35;0.60;;;14.10;88.50;;;;;;5031920;28;20108;-77
2023/11/10 10:18:09;;;;;;;1.50;0.57;;;14.00;88.50;;;;;;5038726;23;20138;-77
2023/11/10 10:20:35;;;;;;;1.50;0.82;;;14.00;88.50;;;;;;5031517;28;20026;-79
2023/11/10 10:23:01;;;;;;;1.05;0.60;;;14.00;88.50;;;;;;5015133;28;20025;-79
2023/11/10 10:25:27;;;;;;;2.05;0.60;;;14.00;88.60;;;;;;5026579;28;20514;-79
2023/11/10 10:27:53;;;;;;;2.03;0.68;;;14.00;88.70;;;;;;5053587;28;20078;-79
2023/11/10 10:30:19;;;;;;;0.80;0.50;;;14.00;88.70;;;;;;5035422;28;20025;-79
2023/11/10 10:32:49;;;;;;;2.67;0.63;;;14.00;88.80;;;;;;5053933;28;20487;-79
2023/11/10 10:35:15;;;;;;;1.50;0.63;;;14.00;88.90;;;;;;5035789;28;20032;-80
2023/11/10 10:37:42;;;;;;;1.73;0.50;;;14.00;88.80;;;;;;5035709;28;20445;-80
2023/11/10 10:40:09;;;;;;;1.75;0.60;;;14.00;89.10;;;;;;5053053;28;20025;-79
2023/11/10 10:42:36;;;;;;;1.08;0.50;;;14.00;88.80;;;;;;5035735;28;20021;-80
2023/11/10 10:45:06;;;;;;;1.45;0.60;;;13.90;88.90;;;;;;5038826;28;20024;-79
2023/11/10 10:47:38;;;;;;;3.13;0.75;;;14.00;88.90;;;;;;5039191;28;20021;-80
2023/11/10 10:50:07;;;;;;;1.25;0.60;;;14.00;88.80;;;;;;5057247;28;20028;-79
2023/11/10 10:52:33;;;;;;;1.85;0.70;;;13.90;88.70;;;;;;5057193;28;20042;-79
2023/11/10 10:55:02;;;;;;;0.95;0.60;;;14.00;88.60;;;;;;5038983;28;20052;-78
2023/11/10 10:57:27;;;;;;;1.45;0.70;;;14.00;88.60;;;;;;5039340;28;20075;-79
2023/11/10 10:59:54;;;;;;;0.43;0.40;;;14.00;88.50;;;;;;5056799;28;20017;-79
2023/11/10 11:02:22;;;;;;;1.52;0.85;;;14.10;88.50;;;;;;5057070;28;20372;-79
2023/11/10 11:04:55;;;;;;;2.25;0.60;;;14.10;88.40;;;;;;5056774;28;20096;-79
2023/11/10 11:07:57;;;;;;;0.93;0.50;;;14.10;88.30;;;;;;5038969;28;20025;-80
2023/11/10 11:10:32;;;;;;;0.82;0.50;;;14.20;88.30;;;;;;5038335;28;20032;-80
2023/11/10 11:13:19;;;;;;;1.42;0.60;;;14.20;88.30;;;;;;5057387;28;20382;-79
2023/11/10 11:16:27;;;;;;;0.82;0.40;;;14.20;88.20;;;;;;5056869;28;20387;-79
2023/11/10 11:19:34;;;;;;;1.50;0.60;;;14.20;88.20;;;;;;5038380;28;20483;-79
2023/11/10 11:22:01;;;;;;;1.13;0.60;;;14.20;88.30;;;;;;5052232;28;20036;-79
2023/11/10 11:24:30;;;;;;;1.92;0.52;;;14.10;88.40;;;;;;5057067;28;20429;-78
2023/11/10 11:27:00;;;;;;;0.77;0.40;;;14.10;88.40;;;;;;5056762;28;20445;-78
2023/11/10 11:29:35;;;;;;;1.05;0.55;;;14.10;88.50;;;;;;5038019;28;20028;-79
2023/11/10 11:32:13;;;;;;;1.73;0.75;;;14.10;88.60;;;;;;5038371;28;20052;-80
2023/11/10 11:34:50;;;;;;;1.40;0.50;;;14.10;88.70;;;;;;5038209;28;20029;-79
2023/11/10 11:37:16;;;;;;;1.00;0.60;;;14.10;88.70;;;;;;5038267;28;20024;-79
2023/11/10 11:39:42;;;;;;;2.67;0.80;;;14.10;88.80;;;;;;5037675;28;20024;-79
2023/11/10 11:42:07;;;;;;;0.93;0.60;;;14.00;88.80;;;;;;5056306;28;20025;-78
2023/11/10 11:44:35;;;;;;;0.85;0.60;;;14.00;88.80;;;;;;5037941;28;20525;-79
2023/11/10 11:47:11;;;;;;;1.17;0.60;;;14.00;88.90;;;;;;5038049;28;20025;-79
2023/11/10 11:49:38;;;;;;;1.40;0.52;;;14.00;89.00;;;;;;5037507;28;20565;-79
2023/11/10 11:52:07;;;;;;;1.30;0.60;;;14.00;89.00;;;;;;5056440;28;20056;-79
2023/11/10 11:54:33;;;;;;;1.77;0.70;;;14.00;89.10;;;;;;5037680;28;20029;-79
2023/11/10 11:56:59;;;;;;;1.58;0.70;;;14.00;89.10;;;;;;5037622;28;20653;-79
2023/11/10 11:59:25;;;;;;;0.68;0.47;;;13.90;89.10;;;;;;5037705;28;20021;-78
2023/11/10 12:01:52;;;;;;;1.95;0.60;;;13.90;89.10;;;;;;5055952;28;20096;-79
2023/11/10 12:04:17;;;;;;;1.75;0.63;;;14.00;89.10;;;;;;5055945;28;20090;-79
2023/11/10 12:06:44;;;;;;;1.55;0.60;;;13.90;89.20;;;;;;5038027;28;20029;-79
2023/11/10 12:09:09;;;;;;;1.52;0.50;;;13.90;89.20;;;;;;5037372;28;20032;-79
2023/11/10 12:11:37;;;;;;;1.63;0.60;;;13.90;89.20;;;;;;5037633;28;20033;-79
2023/11/10 12:14:05;;;;;;;1.08;0.55;;;13.90;89.20;;;;;;5037344;28;20395;-79
2023/11/10 12:16:35;;;;;;;1.17;0.50;;;13.90;89.20;;;;;;5055736;28;20041;-79
2023/11/10 12:19:04;;;;;;;1.25;0.50;;;13.90;89.10;;;;;;5037235;28;20036;-79
2023/11/10 12:21:34;;;;;;;0.90;0.80;;;14.00;89.10;;;;;;5037618;28;20022;-79
2023/11/10 12:24:07;;;;;;;0.90;0.57;;;14.00;89.10;;;;;;5037959;28;20035;-78
2023/11/10 12:26:43;;;;;;;1.23;0.40;;;13.90;88.80;;;;;;5055492;28;20109;-79
2023/11/10 12:29:17;;;;;;;1.75;0.60;;;14.00;88.70;;;;;;5054706;28;20028;-80
2023/11/10 12:31:47;;;;;;;0.95;0.52;;;14.00;88.70;;;;;;5037567;28;20116;-79
2023/11/10 12:34:12;;;;;;;1.15;0.52;;;14.10;88.60;;;;;;5036846;28;20078;-79
2023/11/10 12:36:39;;;;;;;1.08;0.50;;;14.10;88.30;;;;;;5037182;28;20025;-79
2023/11/10 12:39:10;;;;;;;2.08;0.68;;;14.10;88.20;;;;;;5036705;28;20021;-79
2023/11/10 12:41:36;;;;;;;1.50;0.70;;;14.10;88.20;;;;;;5037232;28;20032;-79
2023/11/10 12:44:02;;;;;;;1.02;0.60;;;14.10;88.20;;;;;;5037110;28;20028;-79
2023/11/10 12:46:28;;;;;;;1.48;0.70;;;14.10;88.20;;;;;;5036909;28;20414;-79
2023/11/10 12:48:55;;;;;;;1.40;0.60;;;14.10;88.40;;;;;;5036700;28;20040;-79